Reading, Pennsylvania
Current Conditions -  °F | °C
As of 12:54 PM on Saturday 20 Dec 2014 (Local Time) from KRDG Reporting Station
Overcast Overcast  
Wind Chill:   Ceiling: 3000
Heat Index:   Visibility: 10mi
Dew Point: -7°   Wind: 0mph
Humidity: 56%   Direction: NA
Pressure: 30.25"   Gusts: NA
Location:  40.34°N, 75.93°W
Report Text: KRDG 201754Z AUTO 00000KT 10SM OVC030 01/M07 A3025 RMK AO2 SLP251 T00111067 10011 21006 56017
Loading
Personal Weather Stations






























Interactive Weather Map New forecast layout! Learn more

10-Day Weather Forecast

Advertisements
Track Severe Weather on mobile